sensor_id;sensor_type;location;lat;lon;timestamp;temperature;humidity
4934;DHT22;2482;49.154;8.254;2024-01-07T00:00:23;4.60;99.90
4934;DHT22;2482;49.154;8.254;2024-01-07T00:02:50;4.70;99.90
4934;DHT22;2482;49.154;8.254;2024-01-07T00:05:17;4.70;99.90
4934;DHT22;2482;49.154;8.254;2024-01-07T00:07:45;4.70;99.90
4934;DHT22;2482;49.154;8.254;2024-01-07T00:10:12;4.60;99.90
4934;DHT22;2482;49.154;8.254;2024-01-07T00:12:39;4.80;99.90
4934;DHT22;2482;49.154;8.254;2024-01-07T00:15:06;4.60;99.90
4934;DHT22;2482;49.154;8.254;2024-01-07T00:17:33;4.60;99.90
4934;DHT22;2482;49.154;8.254;2024-01-07T00:20:00;4.60;99.90
4934;DHT22;2482;49.154;8.254;2024-01-07T00:22:27;4.60;99.90
4934;DHT22;2482;49.154;8.254;2024-01-07T00:24:55;4.70;99.90
4934;DHT22;2482;49.154;8.254;2024-01-07T00:27:22;4.60;99.90
4934;DHT22;2482;49.154;8.254;2024-01-07T00:29:49;4.50;99.90
4934;DHT22;2482;49.154;8.254;2024-01-07T00:32:16;4.60;99.90
4934;DHT22;2482;49.154;8.254;2024-01-07T00:34:43;4.60;99.90
4934;DHT22;2482;49.154;8.254;2024-01-07T00:37:10;4.60;99.90
4934;DHT22;2482;49.154;8.254;2024-01-07T00:39:37;4.50;99.90
4934;DHT22;2482;49.154;8.254;2024-01-07T00:42:05;4.40;99.90
4934;DHT22;2482;49.154;8.254;2024-01-07T00:44:32;4.50;99.90
4934;DHT22;2482;49.154;8.254;2024-01-07T00:46:59;4.40;99.90
4934;DHT22;2482;49.154;8.254;2024-01-07T00:49:26;4.50;99.90
4934;DHT22;2482;49.154;8.254;2024-01-07T00:51:54;4.50;99.90
4934;DHT22;2482;49.154;8.254;2024-01-07T00:54:21;4.50;99.90
4934;DHT22;2482;49.154;8.254;2024-01-07T00:56:48;4.40;99.90
4934;DHT22;2482;49.154;8.254;2024-01-07T00:59:15;4.40;99.90
4934;DHT22;2482;49.154;8.254;2024-01-07T01:01:42;4.50;99.90
4934;DHT22;2482;49.154;8.254;2024-01-07T01:04:09;4.40;99.90
4934;DHT22;2482;49.154;8.254;2024-01-07T01:06:36;4.50;99.90
4934;DHT22;2482;49.154;8.254;2024-01-07T01:09:04;4.50;99.90
4934;DHT22;2482;49.154;8.254;2024-01-07T01:11:30;4.50;99.90
4934;DHT22;2482;49.154;8.254;2024-01-07T01:13:57;4.40;99.90
4934;DHT22;2482;49.154;8.254;2024-01-07T01:16:24;4.50;99.90
4934;DHT22;2482;49.154;8.254;2024-01-07T01:18:52;4.50;99.90
4934;DHT22;2482;49.154;8.254;2024-01-07T01:21:19;4.50;99.90
4934;DHT22;2482;49.154;8.254;2024-01-07T01:23:46;4.50;99.90
4934;DHT22;2482;49.154;8.254;2024-01-07T01:26:14;4.60;99.90
4934;DHT22;2482;49.154;8.254;2024-01-07T01:28:41;4.50;99.90
4934;DHT22;2482;49.154;8.254;2024-01-07T01:31:12;4.50;99.90
4934;DHT22;2482;49.154;8.254;2024-01-07T01:33:39;4.60;99.90
4934;DHT22;2482;49.154;8.254;2024-01-07T01:36:07;4.40;99.90
4934;DHT22;2482;49.154;8.254;2024-01-07T01:38:34;4.40;99.90
4934;DHT22;2482;49.154;8.254;2024-01-07T01:41:01;4.50;99.90
4934;DHT22;2482;49.154;8.254;2024-01-07T01:43:29;4.50;99.90
4934;DHT22;2482;49.154;8.254;2024-01-07T01:45:56;4.50;99.90
4934;DHT22;2482;49.154;8.254;2024-01-07T01:48:25;4.50;99.90
4934;DHT22;2482;49.154;8.254;2024-01-07T01:50:54;4.60;99.90
4934;DHT22;2482;49.154;8.254;2024-01-07T01:53:25;4.50;99.90
4934;DHT22;2482;49.154;8.254;2024-01-07T01:55:55;4.50;99.90
4934;DHT22;2482;49.154;8.254;2024-01-07T01:58:24;4.50;99.90
4934;DHT22;2482;49.154;8.254;2024-01-07T02:00:52;4.50;99.90
4934;DHT22;2482;49.154;8.254;2024-01-07T02:03:19;4.50;99.90
4934;DHT22;2482;49.154;8.254;2024-01-07T02:05:48;4.60;99.90
4934;DHT22;2482;49.154;8.254;2024-01-07T02:08:17;4.70;99.90
4934;DHT22;2482;49.154;8.254;2024-01-07T02:10:45;4.70;99.90
4934;DHT22;2482;49.154;8.254;2024-01-07T02:13:12;4.50;99.90
4934;DHT22;2482;49.154;8.254;2024-01-07T02:15:40;4.50;99.90
4934;DHT22;2482;49.154;8.254;2024-01-07T02:18:07;4.50;99.90
4934;DHT22;2482;49.154;8.254;2024-01-07T02:20:34;4.60;99.90
4934;DHT22;2482;49.154;8.254;2024-01-07T02:23:03;4.50;99.90
4934;DHT22;2482;49.154;8.254;2024-01-07T02:25:37;4.50;99.90
4934;DHT22;2482;49.154;8.254;2024-01-07T02:28:05;4.50;99.90
4934;DHT22;2482;49.154;8.254;2024-01-07T02:30:32;4.50;99.90
4934;DHT22;2482;49.154;8.254;2024-01-07T02:33:04;4.50;99.90
4934;DHT22;2482;49.154;8.254;2024-01-07T02:35:31;4.50;99.90
4934;DHT22;2482;49.154;8.254;2024-01-07T02:37:58;4.40;99.90
4934;DHT22;2482;49.154;8.254;2024-01-07T02:40:25;4.50;99.90
4934;DHT22;2482;49.154;8.254;2024-01-07T02:42:53;4.60;99.90
4934;DHT22;2482;49.154;8.254;2024-01-07T02:45:20;4.50;99.90
4934;DHT22;2482;49.154;8.254;2024-01-07T02:47:47;4.50;99.90
4934;DHT22;2482;49.154;8.254;2024-01-07T02:50:14;4.40;99.90
4934;DHT22;2482;49.154;8.254;2024-01-07T02:52:42;4.50;99.90
4934;DHT22;2482;49.154;8.254;2024-01-07T02:55:09;4.50;99.90
4934;DHT22;2482;49.154;8.254;2024-01-07T02:57:37;4.60;99.90
4934;DHT22;2482;49.154;8.254;2024-01-07T03:00:04;4.40;99.90
4934;DHT22;2482;49.154;8.254;2024-01-07T03:02:32;4.40;99.90
4934;DHT22;2482;49.154;8.254;2024-01-07T03:04:59;4.40;99.90
4934;DHT22;2482;49.154;8.254;2024-01-07T03:07:26;4.20;99.90
4934;DHT22;2482;49.154;8.254;2024-01-07T03:09:53;4.40;99.90
4934;DHT22;2482;49.154;8.254;2024-01-07T03:12:20;4.40;99.90
4934;DHT22;2482;49.154;8.254;2024-01-07T03:14:47;4.50;99.90
4934;DHT22;2482;49.154;8.254;2024-01-07T03:17:14;4.40;99.90
4934;DHT22;2482;49.154;8.254;2024-01-07T03:19:43;4.30;99.90
4934;DHT22;2482;49.154;8.254;2024-01-07T03:22:11;4.50;99.90
4934;DHT22;2482;49.154;8.254;2024-01-07T03:24:38;4.30;99.90
4934;DHT22;2482;49.154;8.254;2024-01-07T03:27:05;4.50;99.90
4934;DHT22;2482;49.154;8.254;2024-01-07T03:29:32;4.30;99.90
4934;DHT22;2482;49.154;8.254;2024-01-07T03:31:59;4.30;99.90
4934;DHT22;2482;49.154;8.254;2024-01-07T03:34:26;4.30;99.90
4934;DHT22;2482;49.154;8.254;2024-01-07T03:36:53;4.30;99.90
4934;DHT22;2482;49.154;8.254;2024-01-07T03:39:20;4.60;99.90
4934;DHT22;2482;49.154;8.254;2024-01-07T03:41:47;4.30;99.90
4934;DHT22;2482;49.154;8.254;2024-01-07T03:44:14;4.30;99.90
4934;DHT22;2482;49.154;8.254;2024-01-07T03:46:41;4.30;99.90
4934;DHT22;2482;49.154;8.254;2024-01-07T03:49:08;4.20;99.90
4934;DHT22;2482;49.154;8.254;2024-01-07T03:51:36;4.30;99.90
4934;DHT22;2482;49.154;8.254;2024-01-07T03:54:03;4.50;99.90
4934;DHT22;2482;49.154;8.254;2024-01-07T03:56:30;4.30;99.90
4934;DHT22;2482;49.154;8.254;2024-01-07T03:58:57;4.40;99.90
4934;DHT22;2482;49.154;8.254;2024-01-07T04:01:24;4.30;99.90
4934;DHT22;2482;49.154;8.254;2024-01-07T04:03:51;4.30;99.90
4934;DHT22;2482;49.154;8.254;2024-01-07T04:06:18;4.20;99.90
4934;DHT22;2482;49.154;8.254;2024-01-07T04:08:45;4.30;99.90
4934;DHT22;2482;49.154;8.254;2024-01-07T04:11:12;4.20;99.90
4934;DHT22;2482;49.154;8.254;2024-01-07T04:13:40;4.10;99.90
4934;DHT22;2482;49.154;8.254;2024-01-07T04:16:18;4.10;99.90
4934;DHT22;2482;49.154;8.254;2024-01-07T04:18:47;4.10;99.90
4934;DHT22;2482;49.154;8.254;2024-01-07T04:21:19;4.10;99.90
4934;DHT22;2482;49.154;8.254;2024-01-07T04:23:47;4.00;99.90
4934;DHT22;2482;49.154;8.254;2024-01-07T04:26:14;4.00;99.90
4934;DHT22;2482;49.154;8.254;2024-01-07T04:28:41;4.10;99.90
4934;DHT22;2482;49.154;8.254;2024-01-07T04:31:09;4.10;99.90
4934;DHT22;2482;49.154;8.254;2024-01-07T04:33:37;4.10;99.90
4934;DHT22;2482;49.154;8.254;2024-01-07T04:36:04;4.10;99.90
4934;DHT22;2482;49.154;8.254;2024-01-07T04:38:32;4.10;99.90
4934;DHT22;2482;49.154;8.254;2024-01-07T04:40:59;4.30;99.90
4934;DHT22;2482;49.154;8.254;2024-01-07T04:43:26;4.20;99.90
4934;DHT22;2482;49.154;8.254;2024-01-07T04:45:53;4.30;99.90
4934;DHT22;2482;49.154;8.254;2024-01-07T04:48:20;4.10;99.90
4934;DHT22;2482;49.154;8.254;2024-01-07T04:50:47;4.10;99.90
4934;DHT22;2482;49.154;8.254;2024-01-07T04:53:14;4.10;99.90
4934;DHT22;2482;49.154;8.254;2024-01-07T04:55:41;4.10;99.90
4934;DHT22;2482;49.154;8.254;2024-01-07T04:58:08;4.20;99.90
4934;DHT22;2482;49.154;8.254;2024-01-07T05:00:35;4.10;99.90
4934;DHT22;2482;49.154;8.254;2024-01-07T05:03:02;4.10;99.90
4934;DHT22;2482;49.154;8.254;2024-01-07T05:05:30;4.10;99.90
4934;DHT22;2482;49.154;8.254;2024-01-07T05:07:57;4.10;99.90
4934;DHT22;2482;49.154;8.254;2024-01-07T05:10:25;4.30;99.90
4934;DHT22;2482;49.154;8.254;2024-01-07T05:12:53;4.30;99.90
4934;DHT22;2482;49.154;8.254;2024-01-07T05:15:20;4.10;99.90
4934;DHT22;2482;49.154;8.254;2024-01-07T05:17:47;4.10;99.90
4934;DHT22;2482;49.154;8.254;2024-01-07T05:20:15;4.10;99.90
4934;DHT22;2482;49.154;8.254;2024-01-07T05:22:43;4.20;99.90
4934;DHT22;2482;49.154;8.254;2024-01-07T05:25:10;4.10;99.90
4934;DHT22;2482;49.154;8.254;2024-01-07T05:27:37;4.20;99.90
4934;DHT22;2482;49.154;8.254;2024-01-07T05:30:05;4.20;99.90
4934;DHT22;2482;49.154;8.254;2024-01-07T05:32:32;4.20;99.90
4934;DHT22;2482;49.154;8.254;2024-01-07T05:35:00;4.30;99.90
4934;DHT22;2482;49.154;8.254;2024-01-07T05:37:27;4.10;99.90
4934;DHT22;2482;49.154;8.254;2024-01-07T05:39:54;4.10;99.90
4934;DHT22;2482;49.154;8.254;2024-01-07T05:42:21;4.20;99.90
4934;DHT22;2482;49.154;8.254;2024-01-07T05:44:48;4.30;99.90
4934;DHT22;2482;49.154;8.254;2024-01-07T05:47:15;4.30;99.90
4934;DHT22;2482;49.154;8.254;2024-01-07T05:49:43;4.20;99.90
4934;DHT22;2482;49.154;8.254;2024-01-07T05:52:11;4.20;99.90
4934;DHT22;2482;49.154;8.254;2024-01-07T05:54:38;4.20;99.90
4934;DHT22;2482;49.154;8.254;2024-01-07T05:57:05;4.10;99.90
4934;DHT22;2482;49.154;8.254;2024-01-07T05:59:32;4.20;99.90
4934;DHT22;2482;49.154;8.254;2024-01-07T06:01:59;4.10;99.90
4934;DHT22;2482;49.154;8.254;2024-01-07T06:04:26;4.20;99.90
4934;DHT22;2482;49.154;8.254;2024-01-07T06:06:54;4.10;99.90
4934;DHT22;2482;49.154;8.254;2024-01-07T06:09:21;4.20;99.90
4934;DHT22;2482;49.154;8.254;2024-01-07T06:11:48;4.30;99.90
4934;DHT22;2482;49.154;8.254;2024-01-07T06:14:15;4.30;99.90
4934;DHT22;2482;49.154;8.254;2024-01-07T06:16:42;4.10;99.90
4934;DHT22;2482;49.154;8.254;2024-01-07T06:19:09;4.10;99.90
4934;DHT22;2482;49.154;8.254;2024-01-07T06:21:36;4.10;99.90
4934;DHT22;2482;49.154;8.254;2024-01-07T06:24:04;4.10;99.90
4934;DHT22;2482;49.154;8.254;2024-01-07T06:26:31;4.10;99.90
4934;DHT22;2482;49.154;8.254;2024-01-07T06:28:58;4.10;99.90
4934;DHT22;2482;49.154;8.254;2024-01-07T06:31:25;4.10;99.90
4934;DHT22;2482;49.154;8.254;2024-01-07T06:33:53;4.10;99.90
4934;DHT22;2482;49.154;8.254;2024-01-07T06:36:23;4.00;99.90
4934;DHT22;2482;49.154;8.254;2024-01-07T06:38:51;4.20;99.90
4934;DHT22;2482;49.154;8.254;2024-01-07T06:41:19;4.10;99.90
4934;DHT22;2482;49.154;8.254;2024-01-07T06:43:46;4.10;99.90
4934;DHT22;2482;49.154;8.254;2024-01-07T06:46:13;4.20;99.90
4934;DHT22;2482;49.154;8.254;2024-01-07T06:48:40;4.10;99.90
4934;DHT22;2482;49.154;8.254;2024-01-07T06:51:14;4.20;99.90
4934;DHT22;2482;49.154;8.254;2024-01-07T06:53:41;4.10;99.90
4934;DHT22;2482;49.154;8.254;2024-01-07T06:56:09;4.10;99.90
4934;DHT22;2482;49.154;8.254;2024-01-07T06:58:36;4.10;99.90
4934;DHT22;2482;49.154;8.254;2024-01-07T07:01:03;4.00;99.90
4934;DHT22;2482;49.154;8.254;2024-01-07T07:03:33;4.00;99.90
4934;DHT22;2482;49.154;8.254;2024-01-07T07:06:00;4.10;99.90
4934;DHT22;2482;49.154;8.254;2024-01-07T07:08:27;4.10;99.90
4934;DHT22;2482;49.154;8.254;2024-01-07T07:10:54;4.10;99.90
4934;DHT22;2482;49.154;8.254;2024-01-07T07:13:21;4.10;99.90
4934;DHT22;2482;49.154;8.254;2024-01-07T07:15:48;4.10;99.90
4934;DHT22;2482;49.154;8.254;2024-01-07T07:18:15;4.10;99.90
4934;DHT22;2482;49.154;8.254;2024-01-07T07:20:42;4.10;99.90
4934;DHT22;2482;49.154;8.254;2024-01-07T07:23:09;4.10;99.90
4934;DHT22;2482;49.154;8.254;2024-01-07T07:25:37;4.10;99.90
4934;DHT22;2482;49.154;8.254;2024-01-07T07:28:04;4.10;99.90
4934;DHT22;2482;49.154;8.254;2024-01-07T07:30:31;4.00;99.90
4934;DHT22;2482;49.154;8.254;2024-01-07T07:32:58;4.20;99.90
4934;DHT22;2482;49.154;8.254;2024-01-07T07:35:25;4.20;99.90
4934;DHT22;2482;49.154;8.254;2024-01-07T07:37:52;4.10;99.90
4934;DHT22;2482;49.154;8.254;2024-01-07T07:40:19;4.20;99.90
4934;DHT22;2482;49.154;8.254;2024-01-07T07:42:46;4.20;99.90
4934;DHT22;2482;49.154;8.254;2024-01-07T07:45:14;4.20;99.90
4934;DHT22;2482;49.154;8.254;2024-01-07T07:47:41;4.10;99.90
4934;DHT22;2482;49.154;8.254;2024-01-07T07:50:11;4.20;99.90
4934;DHT22;2482;49.154;8.254;2024-01-07T07:52:41;4.10;99.90
4934;DHT22;2482;49.154;8.254;2024-01-07T07:55:08;4.20;99.90
4934;DHT22;2482;49.154;8.254;2024-01-07T07:57:36;4.20;99.90
4934;DHT22;2482;49.154;8.254;2024-01-07T08:00:07;4.30;99.90
4934;DHT22;2482;49.154;8.254;2024-01-07T08:02:34;4.20;99.90
4934;DHT22;2482;49.154;8.254;2024-01-07T08:05:01;4.20;99.90
4934;DHT22;2482;49.154;8.254;2024-01-07T08:07:29;4.20;99.90
4934;DHT22;2482;49.154;8.254;2024-01-07T08:09:56;4.20;99.90
4934;DHT22;2482;49.154;8.254;2024-01-07T08:12:24;4.30;99.90
4934;DHT22;2482;49.154;8.254;2024-01-07T08:14:51;4.20;99.90
4934;DHT22;2482;49.154;8.254;2024-01-07T08:17:18;4.20;99.90
4934;DHT22;2482;49.154;8.254;2024-01-07T08:19:45;4.20;99.90
4934;DHT22;2482;49.154;8.254;2024-01-07T08:22:12;4.20;99.90
4934;DHT22;2482;49.154;8.254;2024-01-07T08:24:41;4.40;99.90
4934;DHT22;2482;49.154;8.254;2024-01-07T08:27:08;4.30;99.90
4934;DHT22;2482;49.154;8.254;2024-01-07T08:29:35;4.20;99.90
4934;DHT22;2482;49.154;8.254;2024-01-07T08:32:03;4.40;99.90
4934;DHT22;2482;49.154;8.254;2024-01-07T08:34:30;4.30;99.90
4934;DHT22;2482;49.154;8.254;2024-01-07T08:36:57;4.50;99.90
4934;DHT22;2482;49.154;8.254;2024-01-07T08:39:24;4.40;99.90
4934;DHT22;2482;49.154;8.254;2024-01-07T08:41:53;4.20;99.90
4934;DHT22;2482;49.154;8.254;2024-01-07T08:44:20;4.30;99.90
4934;DHT22;2482;49.154;8.254;2024-01-07T08:46:47;4.30;99.90
4934;DHT22;2482;49.154;8.254;2024-01-07T08:49:14;4.30;99.90
4934;DHT22;2482;49.154;8.254;2024-01-07T08:51:41;4.40;99.90
4934;DHT22;2482;49.154;8.254;2024-01-07T08:54:09;4.40;99.90
4934;DHT22;2482;49.154;8.254;2024-01-07T08:56:36;4.30;99.90
4934;DHT22;2482;49.154;8.254;2024-01-07T08:59:03;4.60;99.90
4934;DHT22;2482;49.154;8.254;2024-01-07T09:01:31;4.30;99.90
4934;DHT22;2482;49.154;8.254;2024-01-07T09:03:58;4.30;99.90
4934;DHT22;2482;49.154;8.254;2024-01-07T09:06:25;4.30;99.90
4934;DHT22;2482;49.154;8.254;2024-01-07T09:08:53;4.40;99.90
4934;DHT22;2482;49.154;8.254;2024-01-07T09:11:20;4.30;99.90
4934;DHT22;2482;49.154;8.254;2024-01-07T09:13:47;4.40;99.90
4934;DHT22;2482;49.154;8.254;2024-01-07T09:16:18;4.40;99.90
4934;DHT22;2482;49.154;8.254;2024-01-07T09:18:45;4.40;99.90
4934;DHT22;2482;49.154;8.254;2024-01-07T09:21:13;4.50;99.90
4934;DHT22;2482;49.154;8.254;2024-01-07T09:23:43;4.40;99.90
4934;DHT22;2482;49.154;8.254;2024-01-07T09:26:11;4.60;99.90
4934;DHT22;2482;49.154;8.254;2024-01-07T09:28:38;4.50;99.90
4934;DHT22;2482;49.154;8.254;2024-01-07T09:31:05;4.30;99.90
4934;DHT22;2482;49.154;8.254;2024-01-07T09:33:32;4.50;99.90
4934;DHT22;2482;49.154;8.254;2024-01-07T09:35:59;4.40;99.90
4934;DHT22;2482;49.154;8.254;2024-01-07T09:38:41;4.40;99.90
4934;DHT22;2482;49.154;8.254;2024-01-07T09:41:08;4.30;99.90
4934;DHT22;2482;49.154;8.254;2024-01-07T09:43:35;4.30;99.90
4934;DHT22;2482;49.154;8.254;2024-01-07T09:46:03;4.50;99.90
4934;DHT22;2482;49.154;8.254;2024-01-07T09:48:30;4.30;99.90
4934;DHT22;2482;49.154;8.254;2024-01-07T09:50:57;4.30;99.90
4934;DHT22;2482;49.154;8.254;2024-01-07T09:53:30;4.30;99.90
4934;DHT22;2482;49.154;8.254;2024-01-07T09:56:20;4.50;99.90
4934;DHT22;2482;49.154;8.254;2024-01-07T09:58:51;4.20;99.90
4934;DHT22;2482;49.154;8.254;2024-01-07T10:01:19;4.20;99.90
4934;DHT22;2482;49.154;8.254;2024-01-07T10:03:46;4.30;99.90
4934;DHT22;2482;49.154;8.254;2024-01-07T10:06:13;4.30;99.90
4934;DHT22;2482;49.154;8.254;2024-01-07T10:08:46;4.40;99.90
4934;DHT22;2482;49.154;8.254;2024-01-07T10:11:16;4.30;99.90
4934;DHT22;2482;49.154;8.254;2024-01-07T10:13:47;4.30;99.90
4934;DHT22;2482;49.154;8.254;2024-01-07T10:16:14;4.30;99.90
4934;DHT22;2482;49.154;8.254;2024-01-07T10:18:42;4.30;99.90
4934;DHT22;2482;49.154;8.254;2024-01-07T10:21:09;4.30;99.90
4934;DHT22;2482;49.154;8.254;2024-01-07T10:23:36;4.40;99.90
4934;DHT22;2482;49.154;8.254;2024-01-07T10:26:04;4.20;99.90
4934;DHT22;2482;49.154;8.254;2024-01-07T10:28:45;4.20;99.90
4934;DHT22;2482;49.154;8.254;2024-01-07T10:31:12;4.30;99.90
4934;DHT22;2482;49.154;8.254;2024-01-07T10:33:41;4.10;99.90
4934;DHT22;2482;49.154;8.254;2024-01-07T10:36:09;4.30;99.90
4934;DHT22;2482;49.154;8.254;2024-01-07T10:38:36;4.20;99.90
4934;DHT22;2482;49.154;8.254;2024-01-07T10:41:08;4.10;99.90
4934;DHT22;2482;49.154;8.254;2024-01-07T10:43:36;4.20;99.90
4934;DHT22;2482;49.154;8.254;2024-01-07T10:46:05;4.30;99.90
4934;DHT22;2482;49.154;8.254;2024-01-07T10:48:38;4.30;99.90
4934;DHT22;2482;49.154;8.254;2024-01-07T10:51:07;4.20;99.90
4934;DHT22;2482;49.154;8.254;2024-01-07T10:53:37;4.20;99.90
4934;DHT22;2482;49.154;8.254;2024-01-07T10:56:08;4.10;99.90
4934;DHT22;2482;49.154;8.254;2024-01-07T10:58:40;4.10;99.90
4934;DHT22;2482;49.154;8.254;2024-01-07T11:01:09;4.10;99.90
4934;DHT22;2482;49.154;8.254;2024-01-07T11:04:10;4.20;99.90
4934;DHT22;2482;49.154;8.254;2024-01-07T11:09:37;4.10;99.90
4934;DHT22;2482;49.154;8.254;2024-01-07T11:12:08;4.20;99.90
4934;DHT22;2482;49.154;8.254;2024-01-07T11:14:36;4.20;99.90
4934;DHT22;2482;49.154;8.254;2024-01-07T11:17:06;4.20;99.90
4934;DHT22;2482;49.154;8.254;2024-01-07T11:19:37;4.10;99.90
4934;DHT22;2482;49.154;8.254;2024-01-07T11:22:24;4.00;99.90
4934;DHT22;2482;49.154;8.254;2024-01-07T11:24:56;3.70;99.90
4934;DHT22;2482;49.154;8.254;2024-01-07T11:27:26;3.70;99.90
4934;DHT22;2482;49.154;8.254;2024-01-07T11:29:56;3.80;99.90
4934;DHT22;2482;49.154;8.254;2024-01-07T11:32:29;3.60;99.90
4934;DHT22;2482;49.154;8.254;2024-01-07T11:34:56;3.80;99.90
4934;DHT22;2482;49.154;8.254;2024-01-07T11:37:26;3.60;99.90
4934;DHT22;2482;49.154;8.254;2024-01-07T11:39:57;3.60;99.90
4934;DHT22;2482;49.154;8.254;2024-01-07T11:42:25;3.60;99.90
4934;DHT22;2482;49.154;8.254;2024-01-07T11:44:53;3.60;99.90
4934;DHT22;2482;49.154;8.254;2024-01-07T11:47:22;3.70;99.90
4934;DHT22;2482;49.154;8.254;2024-01-07T11:49:50;3.80;99.90
4934;DHT22;2482;49.154;8.254;2024-01-07T11:52:18;3.80;99.90
4934;DHT22;2482;49.154;8.254;2024-01-07T11:54:50;3.70;99.90
4934;DHT22;2482;49.154;8.254;2024-01-07T11:57:17;3.70;99.90
4934;DHT22;2482;49.154;8.254;2024-01-07T11:59:44;3.60;99.90
4934;DHT22;2482;49.154;8.254;2024-01-07T12:02:11;3.60;99.90
4934;DHT22;2482;49.154;8.254;2024-01-07T12:04:38;3.50;99.90
4934;DHT22;2482;49.154;8.254;2024-01-07T12:07:06;3.60;99.90
4934;DHT22;2482;49.154;8.254;2024-01-07T12:09:33;3.60;99.90
4934;DHT22;2482;49.154;8.254;2024-01-07T12:12:01;3.80;99.90
4934;DHT22;2482;49.154;8.254;2024-01-07T12:14:30;3.70;99.90
4934;DHT22;2482;49.154;8.254;2024-01-07T12:16:58;3.60;99.90
4934;DHT22;2482;49.154;8.254;2024-01-07T12:19:25;3.60;99.90
4934;DHT22;2482;49.154;8.254;2024-01-07T12:22:06;3.60;99.90
4934;DHT22;2482;49.154;8.254;2024-01-07T12:24:33;3.70;99.90
4934;DHT22;2482;49.154;8.254;2024-01-07T12:27:05;3.60;99.90
4934;DHT22;2482;49.154;8.254;2024-01-07T12:29:33;3.60;99.90
4934;DHT22;2482;49.154;8.254;2024-01-07T12:32:00;3.60;99.90
4934;DHT22;2482;49.154;8.254;2024-01-07T12:34:30;3.50;99.90
4934;DHT22;2482;49.154;8.254;2024-01-07T12:36:58;3.60;99.90
4934;DHT22;2482;49.154;8.254;2024-01-07T12:39:26;3.60;99.90
4934;DHT22;2482;49.154;8.254;2024-01-07T12:41:54;3.60;99.90
4934;DHT22;2482;49.154;8.254;2024-01-07T12:44:21;3.60;99.90
4934;DHT22;2482;49.154;8.254;2024-01-07T12:46:49;3.70;99.90
4934;DHT22;2482;49.154;8.254;2024-01-07T12:49:19;3.50;99.90
4934;DHT22;2482;49.154;8.254;2024-01-07T12:51:47;3.40;99.90
4934;DHT22;2482;49.154;8.254;2024-01-07T12:54:14;3.50;99.90
4934;DHT22;2482;49.154;8.254;2024-01-07T12:56:40;3.60;99.90
4934;DHT22;2482;49.154;8.254;2024-01-07T12:59:08;3.50;99.90
4934;DHT22;2482;49.154;8.254;2024-01-07T13:01:35;3.40;99.90
4934;DHT22;2482;49.154;8.254;2024-01-07T13:04:04;3.40;99.90
4934;DHT22;2482;49.154;8.254;2024-01-07T13:06:31;3.40;99.90
4934;DHT22;2482;49.154;8.254;2024-01-07T13:08:59;3.50;99.90
4934;DHT22;2482;49.154;8.254;2024-01-07T13:11:30;3.40;99.90
4934;DHT22;2482;49.154;8.254;2024-01-07T13:13:58;3.40;99.90
4934;DHT22;2482;49.154;8.254;2024-01-07T13:16:27;3.40;99.90
4934;DHT22;2482;49.154;8.254;2024-01-07T13:18:55;3.50;99.90
4934;DHT22;2482;49.154;8.254;2024-01-07T13:21:23;3.40;99.90
4934;DHT22;2482;49.154;8.254;2024-01-07T13:23:50;3.50;99.90
4934;DHT22;2482;49.154;8.254;2024-01-07T13:26:17;3.40;99.90
4934;DHT22;2482;49.154;8.254;2024-01-07T13:28:44;3.30;99.90
4934;DHT22;2482;49.154;8.254;2024-01-07T13:31:11;3.30;99.90
4934;DHT22;2482;49.154;8.254;2024-01-07T13:33:40;3.20;99.90
4934;DHT22;2482;49.154;8.254;2024-01-07T13:36:08;3.20;99.90
4934;DHT22;2482;49.154;8.254;2024-01-07T13:38:37;3.20;99.90
4934;DHT22;2482;49.154;8.254;2024-01-07T13:41:10;3.10;99.90
4934;DHT22;2482;49.154;8.254;2024-01-07T13:43:37;3.10;99.90
4934;DHT22;2482;49.154;8.254;2024-01-07T13:46:07;3.20;99.90
4934;DHT22;2482;49.154;8.254;2024-01-07T13:48:35;3.10;99.90
4934;DHT22;2482;49.154;8.254;2024-01-07T13:51:02;3.10;99.90
4934;DHT22;2482;49.154;8.254;2024-01-07T13:53:30;3.10;99.90
4934;DHT22;2482;49.154;8.254;2024-01-07T13:55:57;3.10;99.90
4934;DHT22;2482;49.154;8.254;2024-01-07T13:58:24;3.10;99.90
4934;DHT22;2482;49.154;8.254;2024-01-07T14:00:51;3.00;99.90
4934;DHT22;2482;49.154;8.254;2024-01-07T14:03:19;3.00;99.90
4934;DHT22;2482;49.154;8.254;2024-01-07T14:05:47;3.00;99.90
4934;DHT22;2482;49.154;8.254;2024-01-07T14:08:17;3.00;99.90
4934;DHT22;2482;49.154;8.254;2024-01-07T14:10:44;3.00;99.90
4934;DHT22;2482;49.154;8.254;2024-01-07T14:13:11;3.00;99.90
4934;DHT22;2482;49.154;8.254;2024-01-07T14:15:38;3.10;99.90
4934;DHT22;2482;49.154;8.254;2024-01-07T14:18:05;3.00;99.90
4934;DHT22;2482;49.154;8.254;2024-01-07T14:20:33;2.90;99.90
4934;DHT22;2482;49.154;8.254;2024-01-07T14:23:00;3.00;99.90
4934;DHT22;2482;49.154;8.254;2024-01-07T14:25:27;2.90;99.90
4934;DHT22;2482;49.154;8.254;2024-01-07T14:27:54;2.90;99.90
4934;DHT22;2482;49.154;8.254;2024-01-07T14:30:21;2.90;99.90
4934;DHT22;2482;49.154;8.254;2024-01-07T14:32:49;3.00;99.90
4934;DHT22;2482;49.154;8.254;2024-01-07T14:35:17;2.90;99.90
4934;DHT22;2482;49.154;8.254;2024-01-07T14:37:44;2.90;99.90
4934;DHT22;2482;49.154;8.254;2024-01-07T14:40:11;2.90;99.90
4934;DHT22;2482;49.154;8.254;2024-01-07T14:42:38;2.90;99.90
4934;DHT22;2482;49.154;8.254;2024-01-07T14:45:06;3.00;99.90
4934;DHT22;2482;49.154;8.254;2024-01-07T14:47:35;2.90;99.90
4934;DHT22;2482;49.154;8.254;2024-01-07T14:50:02;2.90;99.90
4934;DHT22;2482;49.154;8.254;2024-01-07T14:52:32;2.90;99.90
4934;DHT22;2482;49.154;8.254;2024-01-07T14:54:59;2.90;99.90
4934;DHT22;2482;49.154;8.254;2024-01-07T14:57:26;2.80;99.90
4934;DHT22;2482;49.154;8.254;2024-01-07T14:59:54;2.80;99.90
4934;DHT22;2482;49.154;8.254;2024-01-07T15:02:22;2.80;99.90
4934;DHT22;2482;49.154;8.254;2024-01-07T15:04:49;2.80;99.90
4934;DHT22;2482;49.154;8.254;2024-01-07T15:07:16;2.60;99.90
4934;DHT22;2482;49.154;8.254;2024-01-07T15:09:46;2.70;99.90
4934;DHT22;2482;49.154;8.254;2024-01-07T15:12:13;2.60;99.90
4934;DHT22;2482;49.154;8.254;2024-01-07T15:14:40;2.50;99.90
4934;DHT22;2482;49.154;8.254;2024-01-07T15:17:07;2.40;99.90
4934;DHT22;2482;49.154;8.254;2024-01-07T15:19:36;2.40;99.90
4934;DHT22;2482;49.154;8.254;2024-01-07T15:22:03;2.30;99.90
4934;DHT22;2482;49.154;8.254;2024-01-07T15:24:30;2.30;99.90
4934;DHT22;2482;49.154;8.254;2024-01-07T15:26:57;2.30;99.90
4934;DHT22;2482;49.154;8.254;2024-01-07T15:29:24;2.30;99.90
4934;DHT22;2482;49.154;8.254;2024-01-07T15:31:51;2.40;99.90
4934;DHT22;2482;49.154;8.254;2024-01-07T15:34:18;2.30;99.90
4934;DHT22;2482;49.154;8.254;2024-01-07T15:36:45;2.30;99.90
4934;DHT22;2482;49.154;8.254;2024-01-07T15:39:12;2.30;99.90
4934;DHT22;2482;49.154;8.254;2024-01-07T15:41:40;2.20;99.90
4934;DHT22;2482;49.154;8.254;2024-01-07T15:44:07;2.20;99.90
4934;DHT22;2482;49.154;8.254;2024-01-07T15:46:34;2.20;99.90
4934;DHT22;2482;49.154;8.254;2024-01-07T15:49:01;2.10;99.90
4934;DHT22;2482;49.154;8.254;2024-01-07T15:51:28;2.20;99.90
4934;DHT22;2482;49.154;8.254;2024-01-07T15:53:55;2.20;99.90
4934;DHT22;2482;49.154;8.254;2024-01-07T15:56:22;2.10;99.90
4934;DHT22;2482;49.154;8.254;2024-01-07T15:58:49;2.10;99.90
4934;DHT22;2482;49.154;8.254;2024-01-07T16:01:16;2.30;99.90
4934;DHT22;2482;49.154;8.254;2024-01-07T16:03:43;2.00;99.90
4934;DHT22;2482;49.154;8.254;2024-01-07T16:06:11;2.10;99.90
4934;DHT22;2482;49.154;8.254;2024-01-07T16:08:38;2.00;99.90
4934;DHT22;2482;49.154;8.254;2024-01-07T16:11:05;2.00;99.90
4934;DHT22;2482;49.154;8.254;2024-01-07T16:13:34;2.10;99.90
4934;DHT22;2482;49.154;8.254;2024-01-07T16:16:01;2.00;99.90
4934;DHT22;2482;49.154;8.254;2024-01-07T16:18:31;2.00;99.90
4934;DHT22;2482;49.154;8.254;2024-01-07T16:20:59;1.90;99.90
4934;DHT22;2482;49.154;8.254;2024-01-07T16:23:32;2.00;99.90